sensor_id;sensor_type;location;lat;lon;timestamp;pressure;altitude;pressure_sealevel;temperature;humidity
57574;BME280;68988;49.000;21.242;2023-09-19T00:00:59;98274.91;;;25.55;48.05
57574;BME280;68988;49.000;21.242;2023-09-19T00:03:25;98269.75;;;25.59;48.16
57574;BME280;68988;49.000;21.242;2023-09-19T00:05:53;98269.25;;;25.57;48.24
57574;BME280;68988;49.000;21.242;2023-09-19T00:08:20;98264.16;;;25.55;48.20
57574;BME280;68988;49.000;21.242;2023-09-19T00:10:50;98256.84;;;25.61;48.01
57574;BME280;68988;49.000;21.242;2023-09-19T00:13:15;98250.97;;;25.59;47.78
57574;BME280;68988;49.000;21.242;2023-09-19T00:15:43;98250.22;;;25.53;48.22
57574;BME280;68988;49.000;21.242;2023-09-19T00:18:13;98259.31;;;25.57;48.17
57574;BME280;68988;49.000;21.242;2023-09-19T00:20:41;98255.81;;;25.57;48.13
57574;BME280;68988;49.000;21.242;2023-09-19T00:23:07;98253.66;;;25.59;47.64
57574;BME280;68988;49.000;21.242;2023-09-19T00:25:36;98250.97;;;25.59;47.86
57574;BME280;68988;49.000;21.242;2023-09-19T00:28:03;98253.06;;;25.62;47.77
57574;BME280;68988;49.000;21.242;2023-09-19T00:30:29;98258.72;;;25.60;47.82
57574;BME280;68988;49.000;21.242;2023-09-19T00:32:55;98259.53;;;25.61;47.58
57574;BME280;68988;49.000;21.242;2023-09-19T00:35:21;98256.84;;;25.61;47.66
57574;BME280;68988;49.000;21.242;2023-09-19T00:37:49;98262.00;;;25.57;47.40
57574;BME280;68988;49.000;21.242;2023-09-19T00:40:14;98259.09;;;25.53;47.57
57574;BME280;68988;49.000;21.242;2023-09-19T00:42:43;98259.59;;;25.55;48.07
57574;BME280;68988;49.000;21.242;2023-09-19T00:45:10;98263.34;;;25.54;47.69
57574;BME280;68988;49.000;21.242;2023-09-19T00:47:46;98251.31;;;25.52;47.81
57574;BME280;68988;49.000;21.242;2023-09-19T00:50:15;98250.00;;;25.49;48.05
57574;BME280;68988;49.000;21.242;2023-09-19T00:52:43;98253.72;;;25.53;48.01
57574;BME280;68988;49.000;21.242;2023-09-19T00:55:09;98257.47;;;25.52;48.14
57574;BME280;68988;49.000;21.242;2023-09-19T00:57:37;98248.63;;;25.52;48.47
57574;BME280;68988;49.000;21.242;2023-09-19T01:00:04;98248.34;;;25.53;48.02
57574;BME280;68988;49.000;21.242;2023-09-19T01:02:34;98248.38;;;25.48;48.30
57574;BME280;68988;49.000;21.242;2023-09-19T01:05:00;98239.84;;;25.46;48.43
57574;BME280;68988;49.000;21.242;2023-09-19T01:07:30;98235.50;;;25.50;48.35
57574;BME280;68988;49.000;21.242;2023-09-19T01:10:01;98234.69;;;25.50;48.35
57574;BME280;68988;49.000;21.242;2023-09-19T01:12:34;98240.06;;;25.50;48.38
57574;BME280;68988;49.000;21.242;2023-09-19T01:15:32;98237.06;;;25.51;48.07
57574;BME280;68988;49.000;21.242;2023-09-19T01:24:32;98219.56;;;25.35;48.70
57574;BME280;68988;49.000;21.242;2023-09-19T01:26:30;98215.47;;;25.43;48.50
57574;BME280;68988;49.000;21.242;2023-09-19T01:31:44;98218.47;;;25.36;48.74
57574;BME280;68988;49.000;21.242;2023-09-19T01:34:10;98227.06;;;25.38;48.78
57574;BME280;68988;49.000;21.242;2023-09-19T01:36:36;98228.63;;;25.39;48.66
57574;BME280;68988;49.000;21.242;2023-09-19T01:39:10;98221.63;;;25.43;48.49
57574;BME280;68988;49.000;21.242;2023-09-19T01:44:06;98226.19;;;25.43;48.79
57574;BME280;68988;49.000;21.242;2023-09-19T01:46:35;98225.09;;;25.44;48.64
57574;BME280;68988;49.000;21.242;2023-09-19T01:52:05;98238.50;;;25.44;48.77
57574;BME280;68988;49.000;21.242;2023-09-19T01:54:34;98226.03;;;25.34;48.86
57574;BME280;68988;49.000;21.242;2023-09-19T01:57:10;98228.06;;;25.42;49.02
57574;BME280;68988;49.000;21.242;2023-09-19T01:59:45;98223.34;;;25.34;49.30
57574;BME280;68988;49.000;21.242;2023-09-19T02:02:12;98223.41;;;25.29;49.50
57574;BME280;68988;49.000;21.242;2023-09-19T02:04:37;98220.16;;;25.32;49.20
57574;BME280;68988;49.000;21.242;2023-09-19T02:07:03;98219.88;;;25.33;49.45
57574;BME280;68988;49.000;21.242;2023-09-19T02:09:31;98212.94;;;25.27;49.79
57574;BME280;68988;49.000;21.242;2023-09-19T02:11:56;98207.84;;;25.26;49.88
57574;BME280;68988;49.000;21.242;2023-09-19T02:14:21;98208.13;;;25.24;50.02
57574;BME280;68988;49.000;21.242;2023-09-19T02:16:47;98203.84;;;25.23;49.99
57574;BME280;68988;49.000;21.242;2023-09-19T02:19:15;98195.00;;;25.23;49.88
57574;BME280;68988;49.000;21.242;2023-09-19T02:21:40;98198.69;;;25.27;49.74
57574;BME280;68988;49.000;21.242;2023-09-19T02:24:06;98190.94;;;25.25;49.89
57574;BME280;68988;49.000;21.242;2023-09-19T02:26:33;98194.44;;;25.26;49.76
57574;BME280;68988;49.000;21.242;2023-09-19T02:29:02;98194.47;;;25.20;50.26
57574;BME280;68988;49.000;21.242;2023-09-19T02:31:30;98195.28;;;25.21;50.18
57574;BME280;68988;49.000;21.242;2023-09-19T02:33:58;98186.47;;;25.15;50.25
57574;BME280;68988;49.000;21.242;2023-09-19T02:36:25;98184.59;;;25.16;50.40
57574;BME280;68988;49.000;21.242;2023-09-19T02:38:51;98192.13;;;25.14;50.41
57574;BME280;68988;49.000;21.242;2023-09-19T02:41:16;98185.44;;;25.11;50.37
57574;BME280;68988;49.000;21.242;2023-09-19T02:43:41;98193.22;;;25.13;50.55
57574;BME280;68988;49.000;21.242;2023-09-19T02:46:08;98194.59;;;25.10;50.81
57574;BME280;68988;49.000;21.242;2023-09-19T02:48:34;98188.94;;;25.12;50.61
57574;BME280;68988;49.000;21.242;2023-09-19T02:51:01;98180.09;;;25.11;50.48
57574;BME280;68988;49.000;21.242;2023-09-19T02:53:26;98188.13;;;25.11;50.49
57574;BME280;68988;49.000;21.242;2023-09-19T02:55:52;98180.66;;;25.08;50.93
57574;BME280;68988;49.000;21.242;2023-09-19T02:58:19;98173.47;;;25.03;51.33
57574;BME280;68988;49.000;21.242;2023-09-19T03:00:44;98176.41;;;25.07;50.84
57574;BME280;68988;49.000;21.242;2023-09-19T03:03:12;98164.34;;;25.05;51.04
57574;BME280;68988;49.000;21.242;2023-09-19T03:05:38;98165.13;;;25.05;51.18
57574;BME280;68988;49.000;21.242;2023-09-19T03:08:03;98161.88;;;25.08;50.95
57574;BME280;68988;49.000;21.242;2023-09-19T03:10:30;98161.00;;;25.13;50.88
57574;BME280;68988;49.000;21.242;2023-09-19T03:12:56;98161.84;;;25.13;50.78
57574;BME280;68988;49.000;21.242;2023-09-19T03:15:22;98161.84;;;25.13;51.07
57574;BME280;68988;49.000;21.242;2023-09-19T03:17:48;98157.53;;;25.12;50.89
57574;BME280;68988;49.000;21.242;2023-09-19T03:20:14;98163.75;;;25.08;50.89
57574;BME280;68988;49.000;21.242;2023-09-19T03:22:45;98160.81;;;25.09;51.04
57574;BME280;68988;49.000;21.242;2023-09-19T03:25:11;98147.38;;;25.09;50.97
57574;BME280;68988;49.000;21.242;2023-09-19T03:27:37;98150.84;;;25.10;50.82
57574;BME280;68988;49.000;21.242;2023-09-19T03:30:04;98150.34;;;25.08;50.94
57574;BME280;68988;49.000;21.242;2023-09-19T03:32:37;98149.03;;;25.05;50.92
57574;BME280;68988;49.000;21.242;2023-09-19T03:35:08;98149.03;;;25.05;50.96
57574;BME280;68988;49.000;21.242;2023-09-19T03:37:40;98139.91;;;25.06;51.08
57574;BME280;68988;49.000;21.242;2023-09-19T03:40:06;98138.00;;;25.07;51.24
57574;BME280;68988;49.000;21.242;2023-09-19T03:42:32;98132.16;;;25.05;51.41
57574;BME280;68988;49.000;21.242;2023-09-19T03:44:58;98136.66;;;25.09;51.01
57574;BME280;68988;49.000;21.242;2023-09-19T03:47:24;98128.38;;;25.06;51.31
57574;BME280;68988;49.000;21.242;2023-09-19T03:49:50;98131.84;;;25.06;51.39
57574;BME280;68988;49.000;21.242;2023-09-19T03:52:15;98118.94;;;25.08;50.99
57574;BME280;68988;49.000;21.242;2023-09-19T03:54:41;98114.13;;;25.10;50.69
57574;BME280;68988;49.000;21.242;2023-09-19T03:57:06;98119.47;;;25.10;50.80
57574;BME280;68988;49.000;21.242;2023-09-19T03:59:32;98129.63;;;25.13;51.12
57574;BME280;68988;49.000;21.242;2023-09-19T04:01:57;98126.44;;;25.11;51.05
57574;BME280;68988;49.000;21.242;2023-09-19T04:04:23;98130.22;;;25.10;50.81
57574;BME280;68988;49.000;21.242;2023-09-19T04:06:50;98130.78;;;25.07;51.50
57574;BME280;68988;49.000;21.242;2023-09-19T04:09:16;98127.00;;;25.08;51.06
57574;BME280;68988;49.000;21.242;2023-09-19T04:11:41;98127.06;;;25.03;51.20
57574;BME280;68988;49.000;21.242;2023-09-19T04:14:06;98124.31;;;25.08;51.13
57574;BME280;68988;49.000;21.242;2023-09-19T04:16:32;98121.13;;;25.06;51.22
57574;BME280;68988;49.000;21.242;2023-09-19T04:18:57;98126.00;;;25.04;51.23
57574;BME280;68988;49.000;21.242;2023-09-19T04:21:23;98126.50;;;25.06;51.65
57574;BME280;68988;49.000;21.242;2023-09-19T04:23:48;98129.47;;;25.05;51.60
57574;BME280;68988;49.000;21.242;2023-09-19T04:26:13;98121.41;;;25.05;51.49
57574;BME280;68988;49.000;21.242;2023-09-19T04:28:41;98120.09;;;25.02;51.64
57574;BME280;68988;49.000;21.242;2023-09-19T04:31:07;98115.84;;;25.01;52.11
57574;BME280;68988;49.000;21.242;2023-09-19T04:33:34;98118.53;;;25.01;51.92
57574;BME280;68988;49.000;21.242;2023-09-19T04:36:00;98117.19;;;24.98;51.67
57574;BME280;68988;49.000;21.242;2023-09-19T04:38:25;98113.78;;;24.93;52.25
57574;BME280;68988;49.000;21.242;2023-09-19T04:40:57;98122.56;;;24.98;51.86
57574;BME280;68988;49.000;21.242;2023-09-19T04:43:22;98131.69;;;24.97;51.96
57574;BME280;68988;49.000;21.242;2023-09-19T04:45:49;98134.66;;;24.96;52.07
57574;BME280;68988;49.000;21.242;2023-09-19T04:48:14;98116.13;;;24.99;52.36
57574;BME280;68988;49.000;21.242;2023-09-19T04:50:41;98120.66;;;24.99;52.08
57574;BME280;68988;49.000;21.242;2023-09-19T04:53:06;98115.56;;;25.02;51.98
57574;BME280;68988;49.000;21.242;2023-09-19T04:55:32;98119.53;;;25.05;52.37
57574;BME280;68988;49.000;21.242;2023-09-19T04:57:58;98118.22;;;25.02;52.48
57574;BME280;68988;49.000;21.242;2023-09-19T05:00:23;98114.50;;;24.98;52.69
57574;BME280;68988;49.000;21.242;2023-09-19T05:02:55;98116.63;;;25.01;53.36
57574;BME280;68988;49.000;21.242;2023-09-19T05:05:21;98120.63;;;25.04;53.37
57574;BME280;68988;49.000;21.242;2023-09-19T05:07:48;98123.03;;;25.06;53.04
57574;BME280;68988;49.000;21.242;2023-09-19T05:10:13;98118.75;;;25.05;53.79
57574;BME280;68988;49.000;21.242;2023-09-19T05:12:39;98121.63;;;25.08;53.02
57574;BME280;68988;49.000;21.242;2023-09-19T05:15:05;98117.13;;;25.03;53.38
57574;BME280;68988;49.000;21.242;2023-09-19T05:17:32;98107.22;;;25.04;53.68
57574;BME280;68988;49.000;21.242;2023-09-19T05:19:58;98107.72;;;25.06;53.38
57574;BME280;68988;49.000;21.242;2023-09-19T05:22:26;98103.97;;;25.07;53.82
57574;BME280;68988;49.000;21.242;2023-09-19T05:24:52;98105.53;;;25.08;53.19
57574;BME280;68988;49.000;21.242;2023-09-19T05:27:18;98110.13;;;25.08;53.17
57574;BME280;68988;49.000;21.242;2023-09-19T05:29:44;98105.31;;;25.05;53.94
57574;BME280;68988;49.000;21.242;2023-09-19T05:32:10;98111.19;;;25.07;53.47
57574;BME280;68988;49.000;21.242;2023-09-19T05:34:36;98103.16;;;25.07;53.52
57574;BME280;68988;49.000;21.242;2023-09-19T05:37:02;98092.69;;;25.05;53.29
57574;BME280;68988;49.000;21.242;2023-09-19T05:39:27;98094.31;;;25.06;53.50
57574;BME280;68988;49.000;21.242;2023-09-19T05:41:52;98100.16;;;25.08;53.40
57574;BME280;68988;49.000;21.242;2023-09-19T05:44:18;98098.31;;;25.09;53.15
57574;BME280;68988;49.000;21.242;2023-09-19T05:46:43;98097.78;;;25.07;53.23
57574;BME280;68988;49.000;21.242;2023-09-19T05:49:10;98101.00;;;25.09;53.22
57574;BME280;68988;49.000;21.242;2023-09-19T05:51:35;98092.66;;;25.10;53.24
57574;BME280;68988;49.000;21.242;2023-09-19T05:54:01;98098.31;;;25.09;53.58
57574;BME280;68988;49.000;21.242;2023-09-19T05:56:26;98098.31;;;25.09;53.59
57574;BME280;68988;49.000;21.242;2023-09-19T05:58:52;98100.69;;;25.10;53.28
57574;BME280;68988;49.000;21.242;2023-09-19T06:01:18;98112.78;;;25.08;52.94
57574;BME280;68988;49.000;21.242;2023-09-19T06:03:44;98101.19;;;25.12;52.73
57574;BME280;68988;49.000;21.242;2023-09-19T06:06:09;98106.56;;;25.12;53.00
57574;BME280;68988;49.000;21.242;2023-09-19T06:08:35;98104.38;;;25.14;53.27
57574;BME280;68988;49.000;21.242;2023-09-19T06:11:00;98099.84;;;25.15;53.50
57574;BME280;68988;49.000;21.242;2023-09-19T06:13:29;98098.16;;;25.19;53.13
57574;BME280;68988;49.000;21.242;2023-09-19T06:15:57;98100.06;;;25.18;53.22
57574;BME280;68988;49.000;21.242;2023-09-19T06:18:24;98102.81;;;25.13;53.17
57574;BME280;68988;49.000;21.242;2023-09-19T06:20:51;98104.38;;;25.14;52.98
57574;BME280;68988;49.000;21.242;2023-09-19T06:23:17;98112.59;;;25.23;53.31
57574;BME280;68988;49.000;21.242;2023-09-19T06:25:43;98112.31;;;25.25;53.31
57574;BME280;68988;49.000;21.242;2023-09-19T06:28:09;98110.22;;;25.22;53.33
57574;BME280;68988;49.000;21.242;2023-09-19T06:30:37;98111.28;;;25.20;53.43
57574;BME280;68988;49.000;21.242;2023-09-19T06:33:05;98117.75;;;25.19;53.70
57574;BME280;68988;49.000;21.242;2023-09-19T06:35:34;98112.97;;;25.16;53.09
57574;BME280;68988;49.000;21.242;2023-09-19T06:38:02;98119.56;;;25.24;53.71
57574;BME280;68988;49.000;21.242;2023-09-19T06:40:28;98119.88;;;25.23;53.42
57574;BME280;68988;49.000;21.242;2023-09-19T06:42:56;98123.34;;;25.23;54.08
57574;BME280;68988;49.000;21.242;2023-09-19T06:45:22;98121.97;;;25.26;53.23
57574;BME280;68988;49.000;21.242;2023-09-19T06:47:49;98128.38;;;25.30;53.08
57574;BME280;68988;49.000;21.242;2023-09-19T06:50:15;98119.47;;;25.34;53.17
57574;BME280;68988;49.000;21.242;2023-09-19T06:52:41;98121.63;;;25.32;53.19
57574;BME280;68988;49.000;21.242;2023-09-19T06:55:06;98121.44;;;25.29;53.57
57574;BME280;68988;49.000;21.242;2023-09-19T06:57:32;98120.09;;;25.26;53.31
57574;BME280;68988;49.000;21.242;2023-09-19T06:59:57;98114.94;;;25.30;53.51
57574;BME280;68988;49.000;21.242;2023-09-19T07:02:23;98120.59;;;25.28;53.77
57574;BME280;68988;49.000;21.242;2023-09-19T07:04:48;98132.88;;;25.34;53.29
57574;BME280;68988;49.000;21.242;2023-09-19T07:07:15;98126.22;;;25.32;53.21
57574;BME280;68988;49.000;21.242;2023-09-19T07:09:41;98137.94;;;25.36;53.34
57574;BME280;68988;49.000;21.242;2023-09-19T07:12:07;98135.63;;;25.29;53.18
57574;BME280;68988;49.000;21.242;2023-09-19T07:14:32;98136.41;;;25.30;53.02
57574;BME280;68988;49.000;21.242;2023-09-19T07:16:58;98134.00;;;25.28;53.32
57574;BME280;68988;49.000;21.242;2023-09-19T07:19:25;98137.66;;;25.37;53.55
57574;BME280;68988;49.000;21.242;2023-09-19T07:21:53;98145.81;;;25.51;52.65
57574;BME280;68988;49.000;21.242;2023-09-19T07:24:19;98145.00;;;25.51;52.49
57574;BME280;68988;49.000;21.242;2023-09-19T07:26:45;98148.50;;;25.51;53.07
57574;BME280;68988;49.000;21.242;2023-09-19T07:29:11;98136.75;;;25.47;52.62
57574;BME280;68988;49.000;21.242;2023-09-19T07:31:36;98146.47;;;25.43;53.16
57574;BME280;68988;49.000;21.242;2023-09-19T07:34:01;98147.53;;;25.42;52.93
57574;BME280;68988;49.000;21.242;2023-09-19T07:36:29;98148.13;;;25.39;53.18
57574;BME280;68988;49.000;21.242;2023-09-19T07:38:55;98136.81;;;25.42;52.87
57574;BME280;68988;49.000;21.242;2023-09-19T07:41:23;98143.28;;;25.41;52.78
57574;BME280;68988;49.000;21.242;2023-09-19T07:43:49;98142.16;;;25.42;53.10
57574;BME280;68988;49.000;21.242;2023-09-19T07:46:14;98140.59;;;25.41;52.99
57574;BME280;68988;49.000;21.242;2023-09-19T07:48:39;98135.44;;;25.45;53.05
57574;BME280;68988;49.000;21.242;2023-09-19T07:51:06;98138.63;;;25.47;52.72
57574;BME280;68988;49.000;21.242;2023-09-19T07:53:33;98132.47;;;25.46;52.84
57574;BME280;68988;49.000;21.242;2023-09-19T07:56:06;98128.69;;;25.47;53.21
57574;BME280;68988;49.000;21.242;2023-09-19T07:58:32;98119.53;;;25.48;53.52
57574;BME280;68988;49.000;21.242;2023-09-19T08:01:08;98123.75;;;25.54;52.99
57574;BME280;68988;49.000;21.242;2023-09-19T08:03:39;98132.47;;;25.46;53.36
57574;BME280;68988;49.000;21.242;2023-09-19T08:06:09;98132.47;;;25.46;53.40
57574;BME280;68988;49.000;21.242;2023-09-19T08:08:35;98118.75;;;25.48;52.78
57574;BME280;68988;49.000;21.242;2023-09-19T08:11:05;98123.31;;;25.47;53.60
57574;BME280;68988;49.000;21.242;2023-09-19T08:13:46;98106.69;;;25.45;53.23
57574;BME280;68988;49.000;21.242;2023-09-19T08:16:14;98106.69;;;25.45;53.36
57574;BME280;68988;49.000;21.242;2023-09-19T08:18:40;98095.91;;;25.50;52.93
57574;BME280;68988;49.000;21.242;2023-09-19T08:21:06;98104.25;;;25.49;53.45
57574;BME280;68988;49.000;21.242;2023-09-19T08:23:39;98107.06;;;25.58;53.13
57574;BME280;68988;49.000;21.242;2023-09-19T08:26:05;98103.09;;;25.55;53.08
57574;BME280;68988;49.000;21.242;2023-09-19T08:28:34;98104.09;;;25.59;53.03
57574;BME280;68988;49.000;21.242;2023-09-19T08:31:04;98106.72;;;25.64;53.32
57574;BME280;68988;49.000;21.242;2023-09-19T08:33:34;98098.13;;;25.62;53.35
57574;BME280;68988;49.000;21.242;2023-09-19T08:36:01;98107.59;;;25.60;53.52
57574;BME280;68988;49.000;21.242;2023-09-19T08:38:30;98101.63;;;25.63;53.87
57574;BME280;68988;49.000;21.242;2023-09-19T08:41:04;98102.13;;;25.65;53.40
57574;BME280;68988;49.000;21.242;2023-09-19T08:43:30;98097.56;;;25.65;53.71
57574;BME280;68988;49.000;21.242;2023-09-19T08:46:06;98097.25;;;25.67;53.35
57574;BME280;68988;49.000;21.242;2023-09-19T08:48:34;98097.34;;;25.62;53.55
57574;BME280;68988;49.000;21.242;2023-09-19T08:51:07;98085.28;;;25.59;53.85
57574;BME280;68988;49.000;21.242;2023-09-19T08:56:08;98099.66;;;25.68;53.60
57574;BME280;68988;49.000;21.242;2023-09-19T08:58:48;98098.78;;;25.73;53.70
57574;BME280;68988;49.000;21.242;2023-09-19T09:01:15;98096.97;;;25.68;53.93
57574;BME280;68988;49.000;21.242;2023-09-19T09:03:42;98098.28;;;25.71;53.51
57574;BME280;68988;49.000;21.242;2023-09-19T09:06:13;98095.59;;;25.71;53.47
57574;BME280;68988;49.000;21.242;2023-09-19T09:08:40;98101.47;;;25.73;54.06
57574;BME280;68988;49.000;21.242;2023-09-19T09:11:06;98107.34;;;25.75;54.08
57574;BME280;68988;49.000;21.242;2023-09-19T09:13:35;98103.56;;;25.76;53.81
57574;BME280;68988;49.000;21.242;2023-09-19T09:16:01;98103.84;;;25.74;54.05
57574;BME280;68988;49.000;21.242;2023-09-19T09:18:28;98110.53;;;25.77;53.67
57574;BME280;68988;49.000;21.242;2023-09-19T09:20:55;98115.91;;;25.77;53.79
57574;BME280;68988;49.000;21.242;2023-09-19T09:23:21;98114.00;;;25.78;53.79
57574;BME280;68988;49.000;21.242;2023-09-19T09:25:54;98124.47;;;25.79;53.51
57574;BME280;68988;49.000;21.242;2023-09-19T09:28:20;98123.53;;;25.89;53.42
57574;BME280;68988;49.000;21.242;2023-09-19T09:30:46;98122.38;;;25.76;54.24
57574;BME280;68988;49.000;21.242;2023-09-19T09:33:13;98125.88;;;25.77;54.31
57574;BME280;68988;49.000;21.242;2023-09-19T09:38:24;98121.78;;;25.79;54.35
57574;BME280;68988;49.000;21.242;2023-09-19T09:40:54;98120.78;;;25.75;54.57
57574;BME280;68988;49.000;21.242;2023-09-19T09:43:35;98125.34;;;25.74;54.83
57574;BME280;68988;49.000;21.242;2023-09-19T09:51:43;98140.38;;;25.76;54.27
57574;BME280;68988;49.000;21.242;2023-09-19T09:54:13;98140.09;;;25.77;54.60
57574;BME280;68988;49.000;21.242;2023-09-19T10:02:12;98152.94;;;25.80;54.20
57574;BME280;68988;49.000;21.242;2023-09-19T10:04:39;98152.94;;;25.80;54.49
57574;BME280;68988;49.000;21.242;2023-09-19T10:07:27;98150.69;;;25.87;54.37
57574;BME280;68988;49.000;21.242;2023-09-19T10:09:59;98149.66;;;25.83;54.59
57574;BME280;68988;49.000;21.242;2023-09-19T10:12:30;98154.44;;;25.86;54.93
57574;BME280;68988;49.000;21.242;2023-09-19T10:14:57;98166.28;;;25.85;54.46
57574;BME280;68988;49.000;21.242;2023-09-19T10:17:26;98159.81;;;25.86;54.63
57574;BME280;68988;49.000;21.242;2023-09-19T10:19:56;98153.94;;;25.84;54.24
57574;BME280;68988;49.000;21.242;2023-09-19T10:22:24;98168.16;;;25.85;54.70
57574;BME280;68988;49.000;21.242;2023-09-19T10:24:53;98162.50;;;25.86;54.49
57574;BME280;68988;49.000;21.242;2023-09-19T10:27:22;98167.09;;;25.86;54.49
57574;BME280;68988;49.000;21.242;2023-09-19T10:29:52;98165.97;;;25.87;54.66
57574;BME280;68988;49.000;21.242;2023-09-19T10:32:22;98169.25;;;25.84;54.97
57574;BME280;68988;49.000;21.242;2023-09-19T10:34:49;98170.06;;;25.84;54.72
57574;BME280;68988;49.000;21.242;2023-09-19T10:37:16;98175.44;;;25.84;54.62
57574;BME280;68988;49.000;21.242;2023-09-19T10:39:46;98167.66;;;25.83;54.28
57574;BME280;68988;49.000;21.242;2023-09-19T10:42:17;98178.63;;;25.86;54.56
57574;BME280;68988;49.000;21.242;2023-09-19T10:44:45;98173.25;;;25.86;54.36
57574;BME280;68988;49.000;21.242;2023-09-19T10:47:11;98163.00;;;25.88;54.12
57574;BME280;68988;49.000;21.242;2023-09-19T10:49:44;98171.31;;;25.92;54.01
57574;BME280;68988;49.000;21.242;2023-09-19T10:52:13;98166.13;;;25.96;54.24
57574;BME280;68988;49.000;21.242;2023-09-19T10:54:46;98170.47;;;25.91;54.09
57574;BME280;68988;49.000;21.242;2023-09-19T10:57:23;98175.84;;;25.91;54.08
57574;BME280;68988;49.000;21.242;2023-09-19T11:00:06;98174.28;;;25.90;53.85
57574;BME280;68988;49.000;21.242;2023-09-19T11:06:03;98168.38;;;25.88;54.00
57574;BME280;68988;49.000;21.242;2023-09-19T11:30:40;98175.19;;;25.81;54.48
57574;BME280;68988;49.000;21.242;2023-09-19T11:33:30;98167.88;;;25.86;53.85
57574;BME280;68988;49.000;21.242;2023-09-19T11:36:05;98171.44;;;25.82;53.94
57574;BME280;68988;49.000;21.242;2023-09-19T11:46:13;98169.53;;;25.82;54.70
57574;BME280;68988;49.000;21.242;2023-09-19T11:48:47;98168.25;;;25.80;54.05
57574;BME280;68988;49.000;21.242;2023-09-19T11:51:19;98171.81;;;25.75;54.38
57574;BME280;68988;49.000;21.242;2023-09-19T11:53:46;98170.56;;;25.86;53.94
57574;BME280;68988;49.000;21.242;2023-09-19T11:56:15;98170.66;;;25.81;54.17
57574;BME280;68988;49.000;21.242;2023-09-19T11:58:43;98171.59;;;25.90;53.97
57574;BME280;68988;49.000;21.242;2023-09-19T12:01:12;98161.44;;;25.87;54.18
57574;BME280;68988;49.000;21.242;2023-09-19T12:03:42;98170.06;;;25.84;54.52
57574;BME280;68988;49.000;21.242;2023-09-19T12:06:12;98168.38;;;25.88;53.91
57574;BME280;68988;49.000;21.242;2023-09-19T12:08:40;98166.28;;;25.85;53.98
57574;BME280;68988;49.000;21.242;2023-09-19T12:11:12;98171.59;;;25.90;54.04
57574;BME280;68988;49.000;21.242;2023-09-19T12:13:44;98168.91;;;25.90;54.13
57574;BME280;68988;49.000;21.242;2023-09-19T12:16:15;98170.56;;;25.86;54.01
57574;BME280;68988;49.000;21.242;2023-09-19T12:18:41;98178.03;;;25.89;54.04
57574;BME280;68988;49.000;21.242;2023-09-19T12:21:28;98171.00;;;25.94;53.76
57574;BME280;68988;49.000;21.242;2023-09-19T12:24:05;98169.41;;;25.92;54.19
57574;BME280;68988;49.000;21.242;2023-09-19T12:26:37;98169.59;;;26.01;53.52
57574;BME280;68988;49.000;21.242;2023-09-19T12:29:03;98175.66;;;25.88;54.25
57574;BME280;68988;49.000;21.242;2023-09-19T12:31:30;98170.56;;;25.86;54.31
57574;BME280;68988;49.000;21.242;2023-09-19T12:34:01;98181.81;;;25.88;54.08
57574;BME280;68988;49.000;21.242;2023-09-19T12:36:27;98173.47;;;25.90;54.24
57574;BME280;68988;49.000;21.242;2023-09-19T12:38:58;98169.97;;;25.89;54.08
57574;BME280;68988;49.000;21.242;2023-09-19T12:41:24;98170.47;;;25.91;54.03
57574;BME280;68988;49.000;21.242;2023-09-19T12:43:55;98171.31;;;25.92;54.17
57574;BME280;68988;49.000;21.242;2023-09-19T12:46:23;98176.88;;;25.96;54.21
57574;BME280;68988;49.000;21.242;2023-09-19T12:49:16;98178.44;;;26.02;53.71
57574;BME280;68988;49.000;21.242;2023-09-19T12:51:43;98175.56;;;25.93;54.06
57574;BME280;68988;49.000;21.242;2023-09-19T12:54:09;98177.41;;;25.98;54.44
57574;BME280;68988;49.000;21.242;2023-09-19T12:56:43;98182.25;;;25.96;54.24
57574;BME280;68988;49.000;21.242;2023-09-19T12:59:14;98179.06;;;25.94;54.53
57574;BME280;68988;49.000;21.242;2023-09-19T13:01:41;98186.84;;;25.95;53.74
57574;BME280;68988;49.000;21.242;2023-09-19T13:04:17;98189.22;;;25.97;54.06
57574;BME280;68988;49.000;21.242;2023-09-19T13:06:48;98190.84;;;25.98;53.85
57574;BME280;68988;49.000;21.242;2023-09-19T13:09:15;98180.34;;;25.96;54.31
57574;BME280;68988;49.000;21.242;2023-09-19T13:11:41;98189.75;;;25.99;54.36
57574;BME280;68988;49.000;21.242;2023-09-19T13:17:01;98184.88;;;26.01;54.03
57574;BME280;68988;49.000;21.242;2023-09-19T13:19:47;98186.53;;;25.97;54.41
57574;BME280;68988;49.000;21.242;2023-09-19T13:25:11;98190.53;;;25.99;54.06
57574;BME280;68988;49.000;21.242;2023-09-19T13:27:44;98186.78;;;26.00;54.32
57574;BME280;68988;49.000;21.242;2023-09-19T13:30:10;98188.38;;;26.01;54.25
57574;BME280;68988;49.000;21.242;2023-09-19T13:32:36;98197.22;;;26.02;54.00
57574;BME280;68988;49.000;21.242;2023-09-19T13:35:03;98196.44;;;26.01;54.47
57574;BME280;68988;49.000;21.242;2023-09-19T13:37:30;98203.41;;;26.02;54.20
57574;BME280;68988;49.000;21.242;2023-09-19T13:39:56;98202.59;;;26.02;54.38
57574;BME280;68988;49.000;21.242;2023-09-19T13:42:24;98202.31;;;26.03;54.25
57574;BME280;68988;49.000;21.242;2023-09-19T13:44:50;98200.13;;;26.05;54.65
57574;BME280;68988;49.000;21.242;2023-09-19T13:47:16;98205.00;;;26.03;54.28
57574;BME280;68988;49.000;21.242;2023-09-19T13:49:42;98203.63;;;26.06;54.11
57574;BME280;68988;49.000;21.242;2023-09-19T13:52:08;98205.78;;;26.04;54.43
57574;BME280;68988;49.000;21.242;2023-09-19T13:54:34;98205.78;;;26.04;54.44
57574;BME280;68988;49.000;21.242;2023-09-19T13:56:59;98203.06;;;26.09;54.41
57574;BME280;68988;49.000;21.242;2023-09-19T13:59:26;98210.09;;;26.05;53.88
57574;BME280;68988;49.000;21.242;2023-09-19T14:01:53;98208.72;;;26.07;54.40
57574;BME280;68988;49.000;21.242;2023-09-19T14:04:20;98215.91;;;26.12;53.88